sensor_id;sensor_type;location;lat;lon;timestamp;P1;durP1;ratioP1;P2;durP2;ratioP2
77322;SDS011;66384;51.052;9.850;2023-10-13T00:02:10;11.60;;;7.20;;
77322;SDS011;66384;51.052;9.850;2023-10-13T00:04:43;14.20;;;8.00;;
77322;SDS011;66384;51.052;9.850;2023-10-13T00:07:15;12.10;;;7.00;;
77322;SDS011;66384;51.052;9.850;2023-10-13T00:09:46;16.70;;;8.30;;
77322;SDS011;66384;51.052;9.850;2023-10-13T00:12:18;14.60;;;7.50;;
77322;SDS011;66384;51.052;9.850;2023-10-13T00:14:52;13.60;;;7.80;;
77322;SDS011;66384;51.052;9.850;2023-10-13T00:17:23;12.70;;;7.90;;
77322;SDS011;66384;51.052;9.850;2023-10-13T00:19:55;11.60;;;6.90;;
77322;SDS011;66384;51.052;9.850;2023-10-13T00:22:29;13.90;;;8.50;;
77322;SDS011;66384;51.052;9.850;2023-10-13T00:25:03;10.90;;;7.40;;
77322;SDS011;66384;51.052;9.850;2023-10-13T00:27:43;15.30;;;8.00;;
77322;SDS011;66384;51.052;9.850;2023-10-13T00:30:21;12.30;;;7.60;;
77322;SDS011;66384;51.052;9.850;2023-10-13T00:33:02;25.60;;;10.60;;
77322;SDS011;66384;51.052;9.850;2023-10-13T00:35:34;9.10;;;6.00;;
77322;SDS011;66384;51.052;9.850;2023-10-13T00:38:05;13.80;;;7.80;;
77322;SDS011;66384;51.052;9.850;2023-10-13T00:40:41;19.30;;;8.30;;
77322;SDS011;66384;51.052;9.850;2023-10-13T00:43:21;16.40;;;7.50;;
77322;SDS011;66384;51.052;9.850;2023-10-13T00:46:03;12.80;;;7.60;;
77322;SDS011;66384;51.052;9.850;2023-10-13T00:48:42;15.40;;;8.30;;
77322;SDS011;66384;51.052;9.850;2023-10-13T00:51:21;14.60;;;8.40;;
77322;SDS011;66384;51.052;9.850;2023-10-13T00:54:04;15.40;;;7.00;;
77322;SDS011;66384;51.052;9.850;2023-10-13T00:56:40;14.00;;;8.10;;
77322;SDS011;66384;51.052;9.850;2023-10-13T00:59:16;11.70;;;7.70;;
77322;SDS011;66384;51.052;9.850;2023-10-13T01:01:52;15.40;;;7.90;;
77322;SDS011;66384;51.052;9.850;2023-10-13T01:04:25;14.10;;;8.60;;
77322;SDS011;66384;51.052;9.850;2023-10-13T01:07:00;14.30;;;7.40;;
77322;SDS011;66384;51.052;9.850;2023-10-13T01:09:39;12.00;;;7.10;;
77322;SDS011;66384;51.052;9.850;2023-10-13T01:12:12;15.30;;;7.70;;
77322;SDS011;66384;51.052;9.850;2023-10-13T01:14:44;15.00;;;7.90;;
77322;SDS011;66384;51.052;9.850;2023-10-13T01:17:17;13.30;;;7.50;;
77322;SDS011;66384;51.052;9.850;2023-10-13T01:19:52;12.20;;;7.50;;
77322;SDS011;66384;51.052;9.850;2023-10-13T01:22:27;11.90;;;6.90;;
77322;SDS011;66384;51.052;9.850;2023-10-13T01:24:59;13.80;;;8.00;;
77322;SDS011;66384;51.052;9.850;2023-10-13T01:27:41;15.10;;;8.20;;
77322;SDS011;66384;51.052;9.850;2023-10-13T01:30:17;15.00;;;8.10;;
77322;SDS011;66384;51.052;9.850;2023-10-13T01:32:53;12.70;;;7.20;;
77322;SDS011;66384;51.052;9.850;2023-10-13T01:35:29;12.90;;;8.30;;
77322;SDS011;66384;51.052;9.850;2023-10-13T01:38:10;13.60;;;7.40;;
77322;SDS011;66384;51.052;9.850;2023-10-13T01:40:42;16.00;;;9.30;;
77322;SDS011;66384;51.052;9.850;2023-10-13T01:43:14;14.60;;;7.70;;
77322;SDS011;66384;51.052;9.850;2023-10-13T01:45:46;12.60;;;6.70;;
77322;SDS011;66384;51.052;9.850;2023-10-13T01:48:18;16.60;;;8.00;;
77322;SDS011;66384;51.052;9.850;2023-10-13T01:50:51;14.80;;;8.40;;
77322;SDS011;66384;51.052;9.850;2023-10-13T01:53:28;10.20;;;7.70;;
77322;SDS011;66384;51.052;9.850;2023-10-13T01:56:00;13.50;;;7.70;;
77322;SDS011;66384;51.052;9.850;2023-10-13T01:58:35;13.10;;;7.80;;
77322;SDS011;66384;51.052;9.850;2023-10-13T02:01:10;13.30;;;8.50;;
77322;SDS011;66384;51.052;9.850;2023-10-13T02:03:42;11.50;;;7.40;;
77322;SDS011;66384;51.052;9.850;2023-10-13T02:06:16;18.00;;;9.80;;
77322;SDS011;66384;51.052;9.850;2023-10-13T02:08:52;13.70;;;9.50;;
77322;SDS011;66384;51.052;9.850;2023-10-13T02:11:26;14.40;;;6.70;;
77322;SDS011;66384;51.052;9.850;2023-10-13T02:13:59;14.10;;;8.40;;
77322;SDS011;66384;51.052;9.850;2023-10-13T02:16:30;13.50;;;7.90;;
77322;SDS011;66384;51.052;9.850;2023-10-13T02:19:06;16.90;;;9.00;;
77322;SDS011;66384;51.052;9.850;2023-10-13T02:21:37;14.20;;;7.90;;
77322;SDS011;66384;51.052;9.850;2023-10-13T02:24:12;15.10;;;8.10;;
77322;SDS011;66384;51.052;9.850;2023-10-13T02:26:47;15.20;;;9.10;;
77322;SDS011;66384;51.052;9.850;2023-10-13T02:29:19;13.60;;;9.00;;
77322;SDS011;66384;51.052;9.850;2023-10-13T02:31:50;15.00;;;8.70;;
77322;SDS011;66384;51.052;9.850;2023-10-13T02:34:24;14.80;;;8.70;;
77322;SDS011;66384;51.052;9.850;2023-10-13T02:36:56;12.90;;;9.00;;
77322;SDS011;66384;51.052;9.850;2023-10-13T02:39:27;16.20;;;8.40;;
77322;SDS011;66384;51.052;9.850;2023-10-13T02:42:05;18.80;;;9.00;;
77322;SDS011;66384;51.052;9.850;2023-10-13T02:44:36;17.90;;;9.40;;
77322;SDS011;66384;51.052;9.850;2023-10-13T02:47:10;14.10;;;8.20;;
77322;SDS011;66384;51.052;9.850;2023-10-13T02:49:43;13.40;;;9.00;;
77322;SDS011;66384;51.052;9.850;2023-10-13T02:52:16;18.30;;;9.00;;
77322;SDS011;66384;51.052;9.850;2023-10-13T02:54:49;14.20;;;9.20;;
77322;SDS011;66384;51.052;9.850;2023-10-13T02:57:21;16.40;;;9.90;;
77322;SDS011;66384;51.052;9.850;2023-10-13T02:59:53;15.40;;;8.90;;
77322;SDS011;66384;51.052;9.850;2023-10-13T03:02:40;15.10;;;9.20;;
77322;SDS011;66384;51.052;9.850;2023-10-13T03:05:14;19.90;;;10.20;;
77322;SDS011;66384;51.052;9.850;2023-10-13T03:07:49;22.10;;;10.60;;
77322;SDS011;66384;51.052;9.850;2023-10-13T03:10:21;14.80;;;9.10;;
77322;SDS011;66384;51.052;9.850;2023-10-13T03:12:57;16.90;;;9.70;;
77322;SDS011;66384;51.052;9.850;2023-10-13T03:15:32;18.50;;;10.40;;
77322;SDS011;66384;51.052;9.850;2023-10-13T03:18:04;18.00;;;10.50;;
77322;SDS011;66384;51.052;9.850;2023-10-13T03:20:37;20.70;;;11.00;;
77322;SDS011;66384;51.052;9.850;2023-10-13T03:23:11;22.70;;;11.70;;
77322;SDS011;66384;51.052;9.850;2023-10-13T03:25:42;17.60;;;10.40;;
77322;SDS011;66384;51.052;9.850;2023-10-13T03:28:19;21.70;;;11.00;;
77322;SDS011;66384;51.052;9.850;2023-10-13T03:30:54;18.20;;;10.70;;
77322;SDS011;66384;51.052;9.850;2023-10-13T03:33:30;17.00;;;9.90;;
77322;SDS011;66384;51.052;9.850;2023-10-13T03:36:02;17.00;;;9.50;;
77322;SDS011;66384;51.052;9.850;2023-10-13T03:38:35;13.40;;;8.40;;
77322;SDS011;66384;51.052;9.850;2023-10-13T03:41:08;20.30;;;9.20;;
77322;SDS011;66384;51.052;9.850;2023-10-13T03:43:49;21.00;;;10.00;;
77322;SDS011;66384;51.052;9.850;2023-10-13T03:46:36;15.10;;;9.00;;
77322;SDS011;66384;51.052;9.850;2023-10-13T03:49:10;15.50;;;9.20;;
77322;SDS011;66384;51.052;9.850;2023-10-13T03:51:43;16.00;;;8.90;;
77322;SDS011;66384;51.052;9.850;2023-10-13T03:54:16;17.30;;;10.70;;
77322;SDS011;66384;51.052;9.850;2023-10-13T03:56:48;18.00;;;10.30;;
77322;SDS011;66384;51.052;9.850;2023-10-13T03:59:21;12.80;;;9.40;;
77322;SDS011;66384;51.052;9.850;2023-10-13T04:02:03;16.40;;;8.50;;
77322;SDS011;66384;51.052;9.850;2023-10-13T04:04:41;13.30;;;7.90;;
77322;SDS011;66384;51.052;9.850;2023-10-13T04:07:17;18.10;;;8.10;;
77322;SDS011;66384;51.052;9.850;2023-10-13T04:10:12;13.00;;;8.20;;
77322;SDS011;66384;51.052;9.850;2023-10-13T04:13:01;14.20;;;8.90;;
77322;SDS011;66384;51.052;9.850;2023-10-13T04:15:51;13.30;;;9.30;;
77322;SDS011;66384;51.052;9.850;2023-10-13T04:18:44;14.10;;;8.60;;
77322;SDS011;66384;51.052;9.850;2023-10-13T04:21:37;12.80;;;8.00;;
77322;SDS011;66384;51.052;9.850;2023-10-13T04:24:24;16.00;;;8.70;;
77322;SDS011;66384;51.052;9.850;2023-10-13T04:27:10;15.70;;;8.20;;
77322;SDS011;66384;51.052;9.850;2023-10-13T04:29:58;14.10;;;8.20;;
77322;SDS011;66384;51.052;9.850;2023-10-13T04:32:46;13.90;;;8.10;;
77322;SDS011;66384;51.052;9.850;2023-10-13T04:35:35;19.80;;;8.70;;
77322;SDS011;66384;51.052;9.850;2023-10-13T04:38:16;13.60;;;7.50;;
77322;SDS011;66384;51.052;9.850;2023-10-13T04:40:49;13.50;;;7.90;;
77322;SDS011;66384;51.052;9.850;2023-10-13T04:43:31;12.50;;;7.70;;
77322;SDS011;66384;51.052;9.850;2023-10-13T04:46:23;11.70;;;6.80;;
77322;SDS011;66384;51.052;9.850;2023-10-13T04:49:23;15.60;;;7.80;;
77322;SDS011;66384;51.052;9.850;2023-10-13T04:52:05;13.30;;;6.90;;
77322;SDS011;66384;51.052;9.850;2023-10-13T04:54:56;16.40;;;7.70;;
77322;SDS011;66384;51.052;9.850;2023-10-13T04:57:39;15.90;;;7.10;;
77322;SDS011;66384;51.052;9.850;2023-10-13T05:00:18;15.80;;;7.40;;
77322;SDS011;66384;51.052;9.850;2023-10-13T05:03:10;16.10;;;7.40;;
77322;SDS011;66384;51.052;9.850;2023-10-13T05:06:20;12.30;;;7.80;;
77322;SDS011;66384;51.052;9.850;2023-10-13T05:09:23;12.50;;;7.30;;
77322;SDS011;66384;51.052;9.850;2023-10-13T05:12:13;17.80;;;7.60;;
77322;SDS011;66384;51.052;9.850;2023-10-13T05:15:02;15.20;;;7.60;;
77322;SDS011;66384;51.052;9.850;2023-10-13T05:17:53;16.40;;;10.10;;
77322;SDS011;66384;51.052;9.850;2023-10-13T05:20:42;14.50;;;8.80;;
77322;SDS011;66384;51.052;9.850;2023-10-13T05:23:42;13.90;;;8.20;;
77322;SDS011;66384;51.052;9.850;2023-10-13T05:26:31;16.70;;;8.60;;
77322;SDS011;66384;51.052;9.850;2023-10-13T05:35:08;11.30;;;6.90;;
77322;SDS011;66384;51.052;9.850;2023-10-13T05:38:03;11.00;;;7.60;;
77322;SDS011;66384;51.052;9.850;2023-10-13T05:40:53;13.80;;;7.80;;
77322;SDS011;66384;51.052;9.850;2023-10-13T05:43:48;13.10;;;7.40;;
77322;SDS011;66384;51.052;9.850;2023-10-13T05:46:37;12.40;;;7.70;;
77322;SDS011;66384;51.052;9.850;2023-10-13T05:49:30;16.50;;;8.20;;
77322;SDS011;66384;51.052;9.850;2023-10-13T05:52:18;12.70;;;7.90;;
77322;SDS011;66384;51.052;9.850;2023-10-13T05:55:24;12.70;;;7.00;;
77322;SDS011;66384;51.052;9.850;2023-10-13T05:58:14;20.40;;;8.10;;
77322;SDS011;66384;51.052;9.850;2023-10-13T06:01:03;18.30;;;8.10;;
77322;SDS011;66384;51.052;9.850;2023-10-13T06:03:52;15.40;;;7.90;;
77322;SDS011;66384;51.052;9.850;2023-10-13T06:06:41;12.20;;;6.80;;
77322;SDS011;66384;51.052;9.850;2023-10-13T06:09:31;12.30;;;7.70;;
77322;SDS011;66384;51.052;9.850;2023-10-13T06:12:20;13.90;;;7.70;;
77322;SDS011;66384;51.052;9.850;2023-10-13T06:15:09;11.10;;;6.10;;
77322;SDS011;66384;51.052;9.850;2023-10-13T06:20:46;12.90;;;7.10;;
77322;SDS011;66384;51.052;9.850;2023-10-13T06:23:35;10.60;;;7.00;;
77322;SDS011;66384;51.052;9.850;2023-10-13T06:26:24;11.80;;;7.10;;
77322;SDS011;66384;51.052;9.850;2023-10-13T06:29:13;14.80;;;7.70;;
77322;SDS011;66384;51.052;9.850;2023-10-13T06:31:49;11.00;;;7.00;;
77322;SDS011;66384;51.052;9.850;2023-10-13T06:34:21;15.30;;;7.40;;
77322;SDS011;66384;51.052;9.850;2023-10-13T06:37:06;16.50;;;6.20;;
77322;SDS011;66384;51.052;9.850;2023-10-13T06:39:51;14.70;;;7.10;;
77322;SDS011;66384;51.052;9.850;2023-10-13T06:42:25;12.60;;;7.30;;
77322;SDS011;66384;51.052;9.850;2023-10-13T06:44:57;17.50;;;6.80;;
77322;SDS011;66384;51.052;9.850;2023-10-13T06:47:37;15.50;;;7.20;;
77322;SDS011;66384;51.052;9.850;2023-10-13T06:50:11;13.40;;;7.20;;
77322;SDS011;66384;51.052;9.850;2023-10-13T06:52:45;14.30;;;7.20;;
77322;SDS011;66384;51.052;9.850;2023-10-13T06:55:18;9.60;;;6.30;;
77322;SDS011;66384;51.052;9.850;2023-10-13T06:57:55;13.50;;;7.30;;
77322;SDS011;66384;51.052;9.850;2023-10-13T07:00:29;15.70;;;7.50;;
77322;SDS011;66384;51.052;9.850;2023-10-13T07:03:04;14.90;;;6.80;;
77322;SDS011;66384;51.052;9.850;2023-10-13T07:05:38;14.40;;;8.40;;
77322;SDS011;66384;51.052;9.850;2023-10-13T07:08:10;10.10;;;6.90;;
77322;SDS011;66384;51.052;9.850;2023-10-13T07:10:48;15.50;;;6.50;;
77322;SDS011;66384;51.052;9.850;2023-10-13T07:13:31;15.80;;;6.70;;
77322;SDS011;66384;51.052;9.850;2023-10-13T07:16:08;13.30;;;5.60;;
77322;SDS011;66384;51.052;9.850;2023-10-13T07:18:56;11.30;;;6.20;;
77322;SDS011;66384;51.052;9.850;2023-10-13T07:21:34;12.20;;;6.10;;
77322;SDS011;66384;51.052;9.850;2023-10-13T07:24:14;11.50;;;7.00;;
77322;SDS011;66384;51.052;9.850;2023-10-13T07:26:45;14.00;;;7.30;;
77322;SDS011;66384;51.052;9.850;2023-10-13T07:29:26;10.70;;;6.40;;
77322;SDS011;66384;51.052;9.850;2023-10-13T07:31:57;11.30;;;7.40;;
77322;SDS011;66384;51.052;9.850;2023-10-13T07:34:31;16.40;;;7.00;;
77322;SDS011;66384;51.052;9.850;2023-10-13T07:37:04;14.10;;;6.40;;
77322;SDS011;66384;51.052;9.850;2023-10-13T07:39:37;17.30;;;6.60;;
77322;SDS011;66384;51.052;9.850;2023-10-13T07:42:11;15.70;;;7.00;;
77322;SDS011;66384;51.052;9.850;2023-10-13T07:44:48;11.80;;;6.60;;
77322;SDS011;66384;51.052;9.850;2023-10-13T07:47:24;11.60;;;6.30;;
77322;SDS011;66384;51.052;9.850;2023-10-13T07:49:57;10.00;;;6.10;;
77322;SDS011;66384;51.052;9.850;2023-10-13T07:52:28;15.50;;;6.30;;
77322;SDS011;66384;51.052;9.850;2023-10-13T07:55:27;14.50;;;6.50;;
77322;SDS011;66384;51.052;9.850;2023-10-13T07:58:01;13.40;;;6.00;;
77322;SDS011;66384;51.052;9.850;2023-10-13T08:00:36;8.70;;;5.90;;
77322;SDS011;66384;51.052;9.850;2023-10-13T08:03:22;11.20;;;6.80;;
77322;SDS011;66384;51.052;9.850;2023-10-13T08:06:14;16.60;;;6.70;;
77322;SDS011;66384;51.052;9.850;2023-10-13T08:08:50;10.90;;;6.00;;
77322;SDS011;66384;51.052;9.850;2023-10-13T08:11:36;16.10;;;6.40;;
77322;SDS011;66384;51.052;9.850;2023-10-13T08:14:09;12.50;;;5.90;;
77322;SDS011;66384;51.052;9.850;2023-10-13T08:17:01;15.80;;;6.70;;
77322;SDS011;66384;51.052;9.850;2023-10-13T08:19:36;9.40;;;6.20;;
77322;SDS011;66384;51.052;9.850;2023-10-13T08:22:15;11.20;;;6.20;;
77322;SDS011;66384;51.052;9.850;2023-10-13T08:25:05;12.10;;;6.80;;
77322;SDS011;66384;51.052;9.850;2023-10-13T08:28:14;13.50;;;6.40;;
77322;SDS011;66384;51.052;9.850;2023-10-13T08:31:23;12.90;;;6.70;;
77322;SDS011;66384;51.052;9.850;2023-10-13T08:33:58;12.70;;;5.80;;
77322;SDS011;66384;51.052;9.850;2023-10-13T08:36:35;11.90;;;6.20;;
77322;SDS011;66384;51.052;9.850;2023-10-13T08:39:08;13.90;;;6.90;;
77322;SDS011;66384;51.052;9.850;2023-10-13T08:42:08;13.60;;;6.90;;
77322;SDS011;66384;51.052;9.850;2023-10-13T08:44:43;12.20;;;5.70;;
77322;SDS011;66384;51.052;9.850;2023-10-13T08:47:20;14.80;;;6.80;;
77322;SDS011;66384;51.052;9.850;2023-10-13T08:49:57;12.20;;;5.80;;
77322;SDS011;66384;51.052;9.850;2023-10-13T08:52:39;14.50;;;7.20;;
77322;SDS011;66384;51.052;9.850;2023-10-13T08:55:18;12.50;;;6.10;;
77322;SDS011;66384;51.052;9.850;2023-10-13T08:58:08;13.80;;;7.30;;
77322;SDS011;66384;51.052;9.850;2023-10-13T09:00:44;14.60;;;6.00;;
77322;SDS011;66384;51.052;9.850;2023-10-13T09:03:41;11.50;;;6.20;;
77322;SDS011;66384;51.052;9.850;2023-10-13T09:06:18;20.10;;;6.10;;
77322;SDS011;66384;51.052;9.850;2023-10-13T09:08:51;18.10;;;7.00;;
77322;SDS011;66384;51.052;9.850;2023-10-13T09:11:39;13.70;;;6.20;;
77322;SDS011;66384;51.052;9.850;2023-10-13T09:14:19;13.10;;;6.20;;
77322;SDS011;66384;51.052;9.850;2023-10-13T09:17:11;13.20;;;5.80;;
77322;SDS011;66384;51.052;9.850;2023-10-13T09:20:04;11.90;;;5.90;;
77322;SDS011;66384;51.052;9.850;2023-10-13T09:22:55;13.90;;;5.20;;
77322;SDS011;66384;51.052;9.850;2023-10-13T09:25:37;15.40;;;6.50;;
77322;SDS011;66384;51.052;9.850;2023-10-13T09:28:22;16.80;;;7.00;;
77322;SDS011;66384;51.052;9.850;2023-10-13T09:31:00;10.20;;;5.10;;
77322;SDS011;66384;51.052;9.850;2023-10-13T09:33:36;15.20;;;5.60;;
77322;SDS011;66384;51.052;9.850;2023-10-13T09:36:18;10.10;;;4.60;;
77322;SDS011;66384;51.052;9.850;2023-10-13T09:38:50;16.40;;;5.50;;
77322;SDS011;66384;51.052;9.850;2023-10-13T09:41:40;13.90;;;5.40;;
77322;SDS011;66384;51.052;9.850;2023-10-13T09:44:12;16.10;;;6.70;;
77322;SDS011;66384;51.052;9.850;2023-10-13T09:46:47;16.40;;;5.80;;
77322;SDS011;66384;51.052;9.850;2023-10-13T09:49:22;17.20;;;6.50;;
77322;SDS011;66384;51.052;9.850;2023-10-13T09:52:17;12.50;;;6.00;;
77322;SDS011;66384;51.052;9.850;2023-10-13T09:54:56;12.90;;;5.10;;
77322;SDS011;66384;51.052;9.850;2023-10-13T09:57:38;11.60;;;5.50;;
77322;SDS011;66384;51.052;9.850;2023-10-13T10:00:18;11.90;;;5.10;;
77322;SDS011;66384;51.052;9.850;2023-10-13T10:03:10;9.50;;;5.20;;
77322;SDS011;66384;51.052;9.850;2023-10-13T10:05:59;11.90;;;6.40;;
77322;SDS011;66384;51.052;9.850;2023-10-13T10:08:35;13.70;;;5.50;;
77322;SDS011;66384;51.052;9.850;2023-10-13T10:11:26;12.20;;;5.60;;
77322;SDS011;66384;51.052;9.850;2023-10-13T10:14:19;11.50;;;6.10;;
77322;SDS011;66384;51.052;9.850;2023-10-13T10:17:06;15.80;;;5.70;;
77322;SDS011;66384;51.052;9.850;2023-10-13T10:19:48;12.20;;;5.20;;
77322;SDS011;66384;51.052;9.850;2023-10-13T10:22:27;10.00;;;5.20;;
77322;SDS011;66384;51.052;9.850;2023-10-13T10:25:03;10.60;;;5.30;;
77322;SDS011;66384;51.052;9.850;2023-10-13T10:27:55;14.10;;;6.10;;
77322;SDS011;66384;51.052;9.850;2023-10-13T10:30:29;16.90;;;5.50;;
77322;SDS011;66384;51.052;9.850;2023-10-13T10:33:02;16.70;;;6.20;;
77322;SDS011;66384;51.052;9.850;2023-10-13T10:35:41;14.90;;;5.70;;
77322;SDS011;66384;51.052;9.850;2023-10-13T10:38:15;8.10;;;5.10;;
77322;SDS011;66384;51.052;9.850;2023-10-13T10:40:54;16.30;;;5.60;;
77322;SDS011;66384;51.052;9.850;2023-10-13T10:43:28;12.60;;;5.60;;
77322;SDS011;66384;51.052;9.850;2023-10-13T10:46:12;11.50;;;5.40;;
77322;SDS011;66384;51.052;9.850;2023-10-13T10:48:46;11.30;;;6.20;;
77322;SDS011;66384;51.052;9.850;2023-10-13T10:51:17;13.00;;;5.70;;
77322;SDS011;66384;51.052;9.850;2023-10-13T10:53:55;11.30;;;5.30;;
77322;SDS011;66384;51.052;9.850;2023-10-13T10:56:40;10.10;;;5.20;;
77322;SDS011;66384;51.052;9.850;2023-10-13T10:59:11;13.60;;;6.00;;
77322;SDS011;66384;51.052;9.850;2023-10-13T11:01:47;9.40;;;5.80;;
77322;SDS011;66384;51.052;9.850;2023-10-13T11:04:20;11.50;;;6.60;;
77322;SDS011;66384;51.052;9.850;2023-10-13T11:07:02;13.70;;;6.60;;
77322;SDS011;66384;51.052;9.850;2023-10-13T11:09:35;11.60;;;5.70;;
77322;SDS011;66384;51.052;9.850;2023-10-13T11:12:15;14.60;;;5.50;;
77322;SDS011;66384;51.052;9.850;2023-10-13T11:15:03;13.30;;;6.20;;
77322;SDS011;66384;51.052;9.850;2023-10-13T11:17:42;11.40;;;5.50;;
77322;SDS011;66384;51.052;9.850;2023-10-13T11:20:24;14.70;;;6.20;;
77322;SDS011;66384;51.052;9.850;2023-10-13T11:23:10;11.70;;;6.10;;
77322;SDS011;66384;51.052;9.850;2023-10-13T11:25:42;11.00;;;6.00;;
77322;SDS011;66384;51.052;9.850;2023-10-13T11:28:15;20.00;;;8.20;;
77322;SDS011;66384;51.052;9.850;2023-10-13T11:30:48;15.40;;;7.30;;
77322;SDS011;66384;51.052;9.850;2023-10-13T11:33:20;13.60;;;5.40;;
77322;SDS011;66384;51.052;9.850;2023-10-13T11:35:53;14.50;;;7.90;;
77322;SDS011;66384;51.052;9.850;2023-10-13T11:38:31;10.60;;;5.40;;
77322;SDS011;66384;51.052;9.850;2023-10-13T11:41:12;10.20;;;5.30;;
77322;SDS011;66384;51.052;9.850;2023-10-13T11:43:45;12.50;;;7.40;;
77322;SDS011;66384;51.052;9.850;2023-10-13T11:46:41;10.60;;;6.20;;
77322;SDS011;66384;51.052;9.850;2023-10-13T11:49:26;17.10;;;6.60;;
77322;SDS011;66384;51.052;9.850;2023-10-13T11:52:07;13.50;;;6.50;;
77322;SDS011;66384;51.052;9.850;2023-10-13T11:54:48;11.40;;;5.80;;
77322;SDS011;66384;51.052;9.850;2023-10-13T11:57:20;14.90;;;6.30;;
77322;SDS011;66384;51.052;9.850;2023-10-13T11:59:53;12.90;;;7.00;;
77322;SDS011;66384;51.052;9.850;2023-10-13T12:02:45;11.30;;;6.20;;
77322;SDS011;66384;51.052;9.850;2023-10-13T12:05:34;10.10;;;7.00;;
77322;SDS011;66384;51.052;9.850;2023-10-13T12:08:34;14.00;;;6.80;;
77322;SDS011;66384;51.052;9.850;2023-10-13T12:11:18;9.50;;;6.00;;
77322;SDS011;66384;51.052;9.850;2023-10-13T12:14:07;10.50;;;6.40;;
77322;SDS011;66384;51.052;9.850;2023-10-13T12:16:46;10.20;;;6.60;;
77322;SDS011;66384;51.052;9.850;2023-10-13T12:19:20;13.70;;;7.30;;
77322;SDS011;66384;51.052;9.850;2023-10-13T12:21:53;12.10;;;7.00;;
77322;SDS011;66384;51.052;9.850;2023-10-13T12:24:27;14.20;;;6.50;;
77322;SDS011;66384;51.052;9.850;2023-10-13T12:27:08;13.80;;;6.20;;
77322;SDS011;66384;51.052;9.850;2023-10-13T12:29:56;9.50;;;6.70;;
77322;SDS011;66384;51.052;9.850;2023-10-13T12:32:36;12.90;;;5.60;;
77322;SDS011;66384;51.052;9.850;2023-10-13T12:35:13;8.60;;;5.90;;
77322;SDS011;66384;51.052;9.850;2023-10-13T12:37:56;12.30;;;7.50;;
77322;SDS011;66384;51.052;9.850;2023-10-13T12:40:34;18.80;;;7.40;;
77322;SDS011;66384;51.052;9.850;2023-10-13T12:43:23;10.60;;;5.90;;
77322;SDS011;66384;51.052;9.850;2023-10-13T12:46:15;12.60;;;6.10;;
77322;SDS011;66384;51.052;9.850;2023-10-13T12:49:05;12.90;;;6.80;;
77322;SDS011;66384;51.052;9.850;2023-10-13T12:51:57;12.70;;;6.70;;
77322;SDS011;66384;51.052;9.850;2023-10-13T12:54:29;10.40;;;6.90;;
77322;SDS011;66384;51.052;9.850;2023-10-13T12:57:05;15.70;;;6.10;;
77322;SDS011;66384;51.052;9.850;2023-10-13T12:59:38;15.20;;;6.80;;
77322;SDS011;66384;51.052;9.850;2023-10-13T13:02:09;12.20;;;6.70;;
77322;SDS011;66384;51.052;9.850;2023-10-13T13:04:44;12.60;;;6.50;;
77322;SDS011;66384;51.052;9.850;2023-10-13T13:07:20;15.80;;;8.70;;
77322;SDS011;66384;51.052;9.850;2023-10-13T13:09:51;9.90;;;6.10;;
77322;SDS011;66384;51.052;9.850;2023-10-13T13:12:27;11.40;;;6.50;;
77322;SDS011;66384;51.052;9.850;2023-10-13T13:14:59;12.50;;;6.80;;
77322;SDS011;66384;51.052;9.850;2023-10-13T13:17:36;13.00;;;6.90;;
77322;SDS011;66384;51.052;9.850;2023-10-13T13:20:09;14.40;;;6.60;;
77322;SDS011;66384;51.052;9.850;2023-10-13T13:22:55;15.80;;;7.20;;
77322;SDS011;66384;51.052;9.850;2023-10-13T13:25:32;14.70;;;8.00;;
77322;SDS011;66384;51.052;9.850;2023-10-13T13:28:11;12.30;;;7.10;;
77322;SDS011;66384;51.052;9.850;2023-10-13T13:30:44;10.60;;;7.70;;
77322;SDS011;66384;51.052;9.850;2023-10-13T13:33:19;10.90;;;6.40;;
77322;SDS011;66384;51.052;9.850;2023-10-13T13:35:55;13.10;;;7.10;;
77322;SDS011;66384;51.052;9.850;2023-10-13T13:38:29;10.00;;;6.20;;
77322;SDS011;66384;51.052;9.850;2023-10-13T13:41:01;16.70;;;6.60;;
77322;SDS011;66384;51.052;9.850;2023-10-13T13:43:38;10.40;;;6.70;;
77322;SDS011;66384;51.052;9.850;2023-10-13T13:46:25;14.60;;;7.60;;
77322;SDS011;66384;51.052;9.850;2023-10-13T13:49:02;10.20;;;6.60;;
77322;SDS011;66384;51.052;9.850;2023-10-13T13:51:36;13.70;;;7.90;;
77322;SDS011;66384;51.052;9.850;2023-10-13T13:54:08;9.60;;;6.90;;
77322;SDS011;66384;51.052;9.850;2023-10-13T13:56:39;9.70;;;7.40;;
77322;SDS011;66384;51.052;9.850;2023-10-13T13:59:11;11.40;;;6.40;;
77322;SDS011;66384;51.052;9.850;2023-10-13T14:01:44;12.10;;;6.90;;
77322;SDS011;66384;51.052;9.850;2023-10-13T14:04:16;11.60;;;7.40;;
77322;SDS011;66384;51.052;9.850;2023-10-13T14:06:49;14.00;;;8.00;;
77322;SDS011;66384;51.052;9.850;2023-10-13T14:09:21;14.10;;;7.20;;
77322;SDS011;66384;51.052;9.850;2023-10-13T14:12:04;11.90;;;7.30;;
77322;SDS011;66384;51.052;9.850;2023-10-13T14:17:25;9.20;;;5.90;;
77322;SDS011;66384;51.052;9.850;2023-10-13T14:19:58;11.50;;;6.70;;
77322;SDS011;66384;51.052;9.850;2023-10-13T14:22:37;11.50;;;7.00;;
77322;SDS011;66384;51.052;9.850;2023-10-13T14:25:12;13.50;;;6.20;;
77322;SDS011;66384;51.052;9.850;2023-10-13T14:27:44;14.10;;;6.40;;
77322;SDS011;66384;51.052;9.850;2023-10-13T14:30:16;9.80;;;7.30;;
77322;SDS011;66384;51.052;9.850;2023-10-13T14:32:49;9.50;;;6.90;;
77322;SDS011;66384;51.052;9.850;2023-10-13T14:35:21;11.40;;;6.50;;
77322;SDS011;66384;51.052;9.850;2023-10-13T14:37:54;11.20;;;6.30;;
77322;SDS011;66384;51.052;9.850;2023-10-13T14:40:26;13.20;;;6.70;;
77322;SDS011;66384;51.052;9.850;2023-10-13T14:42:58;14.00;;;7.40;;
77322;SDS011;66384;51.052;9.850;2023-10-13T14:45:29;12.10;;;6.70;;
77322;SDS011;66384;51.052;9.850;2023-10-13T14:48:03;12.60;;;7.00;;
77322;SDS011;66384;51.052;9.850;2023-10-13T14:50:37;12.90;;;7.90;;
77322;SDS011;66384;51.052;9.850;2023-10-13T14:53:13;12.30;;;7.50;;
77322;SDS011;66384;51.052;9.850;2023-10-13T14:55:48;15.20;;;7.40;;
77322;SDS011;66384;51.052;9.850;2023-10-13T14:58:20;9.60;;;6.20;;
77322;SDS011;66384;51.052;9.850;2023-10-13T15:00:55;12.70;;;6.40;;
77322;SDS011;66384;51.052;9.850;2023-10-13T15:03:28;17.20;;;7.00;;
77322;SDS011;66384;51.052;9.850;2023-10-13T15:06:07;12.10;;;6.00;;
77322;SDS011;66384;51.052;9.850;2023-10-13T15:08:46;11.70;;;6.70;;
77322;SDS011;66384;51.052;9.850;2023-10-13T15:11:18;12.20;;;6.60;;
77322;SDS011;66384;51.052;9.850;2023-10-13T15:13:50;14.00;;;6.20;;
77322;SDS011;66384;51.052;9.850;2023-10-13T15:16:22;12.80;;;6.60;;
77322;SDS011;66384;51.052;9.850;2023-10-13T15:18:56;11.70;;;6.00;;
77322;SDS011;66384;51.052;9.850;2023-10-13T15:21:28;12.70;;;7.10;;
77322;SDS011;66384;51.052;9.850;2023-10-13T15:24:03;17.80;;;6.80;;
77322;SDS011;66384;51.052;9.850;2023-10-13T15:26:54;11.30;;;6.60;;
77322;SDS011;66384;51.052;9.850;2023-10-13T15:29:33;10.60;;;5.70;;
77322;SDS011;66384;51.052;9.850;2023-10-13T15:32:07;10.80;;;6.60;;
77322;SDS011;66384;51.052;9.850;2023-10-13T15:34:59;13.20;;;6.90;;
77322;SDS011;66384;51.052;9.850;2023-10-13T15:37:30;9.30;;;5.50;;
77322;SDS011;66384;51.052;9.850;2023-10-13T15:40:03;9.90;;;5.90;;
77322;SDS011;66384;51.052;9.850;2023-10-13T15:42:38;10.40;;;5.90;;
77322;SDS011;66384;51.052;9.850;2023-10-13T15:45:10;10.00;;;6.10;;
77322;SDS011;66384;51.052;9.850;2023-10-13T15:47:50;11.00;;;6.00;;
77322;SDS011;66384;51.052;9.850;2023-10-13T15:50:25;14.50;;;8.30;;
77322;SDS011;66384;51.052;9.850;2023-10-13T15:52:58;14.00;;;6.30;;
77322;SDS011;66384;51.052;9.850;2023-10-13T15:55:30;11.30;;;6.00;;
77322;SDS011;66384;51.052;9.850;2023-10-13T15:58:06;37.90;;;20.80;;